Time;durP1;ratioP1;P1;durP2;ratioP2;P2;SDS_P1;SDS_P2;PMS_P1;PMS_P2;Temp;Humidity;BMP_temperature;BMP_pressure;BME280_temperature;BME280_humidity;BME280_pressure;Samples;Min_cycle;Max_cycle;Signal;HPM_P1;HPM_P2
2022/07/21 00:00:14;;;;;;;;;11.75;10.75;;;;;23.27;58.19;101714.69;5047954;28;8816;-65
2022/07/21 00:02:41;;;;;;;;;13.75;13.25;;;;;23.22;58.17;101700.91;5015177;28;8878;-65
2022/07/21 00:05:08;;;;;;;;;14.75;14.75;;;;;23.16;58.06;101697.25;5029519;28;8834;-65
2022/07/21 00:07:34;;;;;;;;;15.50;14.25;;;;;23.08;57.73;101692.22;5031264;28;8803;-65
2022/07/21 00:10:01;;;;;;;;;14.50;13.00;;;;;23.06;57.89;101700.72;5032425;28;8815;-65
2022/07/21 00:12:27;;;;;;;;;13.00;12.25;;;;;23.05;58.04;101701.81;5030262;28;8932;-65
2022/07/21 00:14:54;;;;;;;;;12.75;12.25;;;;;23.03;57.76;101698.50;5030096;28;8916;-64
2022/07/21 00:17:20;;;;;;;;;12.75;10.75;;;;;23.03;57.93;101700.41;5026485;28;8846;-64
2022/07/21 00:19:46;;;;;;;;;12.25;9.50;;;;;23.01;57.75;101695.19;5032107;28;8996;-64
2022/07/21 00:22:13;;;;;;;;;12.00;11.00;;;;;23.02;58.03;101698.75;5027631;28;8857;-64
2022/07/21 00:24:39;;;;;;;;;16.00;13.50;;;;;23.02;58.12;101698.75;5034004;28;8896;-64
2022/07/21 00:27:06;;;;;;;;;13.00;11.75;;;;;23.02;57.92;101696.00;5036089;28;9531;-64
2022/07/21 00:29:32;;;;;;;;;13.25;13.25;;;;;23.01;58.14;101694.31;5037566;28;8823;-64
2022/07/21 00:32:00;;;;;;;;;3.25;2.75;;;;;22.95;58.50;101693.44;5047589;28;8789;-65
2022/07/21 00:34:26;;;;;;;;;13.75;13.75;;;;;22.92;58.24;101691.22;5038065;28;8914;-65
2022/07/21 00:36:53;;;;;;;;;16.00;14.75;;;;;22.90;58.28;101698.84;5036152;28;8819;-64
2022/07/21 00:39:19;;;;;;;;;14.25;14.25;;;;;22.88;58.46;101696.34;5014806;28;8921;-64
2022/07/21 00:41:46;;;;;;;;;15.25;15.00;;;;;22.85;58.79;101702.38;5013236;28;8935;-65
2022/07/21 00:44:27;;;;;;;;;16.00;15.25;;;;;22.80;58.88;101698.72;5030603;28;8945;-65
2022/07/21 00:46:53;;;;;;;;;16.75;15.25;;;;;22.76;59.04;101695.66;5031015;28;8861;-65
2022/07/21 00:49:21;;;;;;;;;13.00;13.00;;;;;22.78;59.24;101709.13;5041757;28;8871;-65
2022/07/21 00:51:48;;;;;;;;;14.25;13.50;;;;;22.79;59.29;101699.81;5013019;28;8835;-66
2022/07/21 00:54:16;;;;;;;;;12.00;11.50;;;;;22.77;59.39;101699.22;5033254;28;8822;-65
2022/07/21 00:56:44;;;;;;;;;17.25;17.25;;;;;22.67;59.72;101698.00;5032124;28;8847;-65
2022/07/21 00:59:11;;;;;;;;;21.00;18.00;;;;;22.64;59.57;101700.44;5039783;28;8887;-65
2022/07/21 01:01:38;;;;;;;;;19.75;17.25;;;;;22.65;59.70;101700.19;5013304;28;8841;-65
2022/07/21 01:04:05;;;;;;;;;21.50;18.75;;;;;22.64;59.67;101698.50;5039450;28;8942;-65
2022/07/21 01:06:31;;;;;;;;;16.50;16.25;;;;;22.62;59.66;101697.94;5013408;28;8830;-65
2022/07/21 01:08:57;;;;;;;;;17.75;17.25;;;;;22.57;59.59;101694.31;5030669;28;8855;-65
2022/07/21 01:11:27;;;;;;;;;22.50;22.50;;;;;22.56;59.72;101696.19;5034152;28;8807;-65
2022/07/21 01:13:53;;;;;;;;;21.67;20.67;;;;;22.54;59.54;101692.91;5038934;28;8900;-65
2022/07/21 01:16:20;;;;;;;;;18.00;17.75;;;;;22.50;59.81;101689.00;5038981;28;9021;-65
2022/07/21 01:18:47;;;;;;;;;21.00;17.00;;;;;22.44;59.82;101690.00;4998292;28;8846;-65
2022/07/21 01:21:32;;;;;;;;;17.50;17.50;;;;;22.46;59.85;101685.94;5033092;28;8831;-65
2022/07/21 01:24:00;;;;;;;;;15.33;13.33;;;;;22.49;60.05;101681.84;5024210;28;8827;-65
2022/07/21 01:26:27;;;;;;;;;16.00;15.50;;;;;22.49;59.84;101683.78;5030581;28;9498;-65
2022/07/21 01:28:54;;;;;;;;;22.00;20.00;;;;;22.46;59.85;101679.63;5030272;28;8815;-65
2022/07/21 01:31:21;;;;;;;;;17.75;17.50;;;;;22.48;59.83;101676.59;5037434;28;8802;-65
2022/07/21 01:33:49;;;;;;;;;19.00;18.25;;;;;22.48;59.84;101671.94;5033475;28;8837;-66
2022/07/21 01:36:16;;;;;;;;;16.50;16.00;;;;;22.47;59.73;101673.03;5025027;28;8910;-65
2022/07/21 01:41:54;;;;;;;;;20.50;19.25;;;;;22.47;59.76;101675.78;5030658;28;8834;-64
2022/07/21 01:44:27;;;;;;;;;21.00;20.00;;;;;22.41;60.22;101671.31;4996509;28;8830;-65
2022/07/21 01:46:57;;;;;;;;;22.25;20.75;;;;;22.39;60.21;101659.75;5020600;28;8830;-65
2022/07/21 01:49:40;;;;;;;;;17.75;16.75;;;;;22.40;60.14;101655.91;5022012;28;8822;-65
2022/07/21 01:52:07;;;;;;;;;24.67;21.67;;;;;22.37;60.17;101646.31;4992907;28;8835;-65
2022/07/21 01:54:33;;;;;;;;;22.33;20.67;;;;;22.35;60.40;101653.13;5028401;28;9190;-64
2022/07/21 01:57:00;;;;;;;;;19.25;17.00;;;;;22.36;60.63;101654.78;5049535;28;9821;-65
2022/07/21 01:59:26;;;;;;;;;25.67;22.67;;;;;22.35;60.50;101650.38;5042124;28;8853;-66
2022/07/21 02:01:53;;;;;;;;;17.75;15.75;;;;;22.37;60.62;101645.47;5029253;28;8911;-65
2022/07/21 02:04:19;;;;;;;;;19.25;16.75;;;;;22.37;60.45;101651.78;5034473;28;9531;-65
2022/07/21 02:06:46;;;;;;;;;24.67;24.33;;;;;22.36;60.43;101663.00;5016530;28;8846;-65
2022/07/21 02:09:12;;;;;;;;;19.67;19.67;;;;;22.31;60.68;101662.94;5023416;28;9144;-65
2022/07/21 02:11:39;;;;;;;;;20.00;20.00;;;;;22.28;60.97;101658.81;5029723;28;8897;-65
2022/07/21 02:14:06;;;;;;;;;21.00;21.00;;;;;22.24;60.85;101659.53;5028796;28;9617;-65
2022/07/21 02:16:32;;;;;;;;;18.25;18.25;;;;;22.21;61.06;101656.22;5019784;28;8943;-65
2022/07/21 02:18:59;;;;;;;;;19.25;17.00;;;;;22.23;61.06;101641.41;5044721;28;8856;-65
2022/07/21 02:21:26;;;;;;;;;22.25;18.50;;;;;22.24;60.98;101645.81;5037277;28;8818;-65
2022/07/21 02:23:52;;;;;;;;;24.67;23.00;;;;;22.25;61.17;101637.34;5044569;28;8828;-66
2022/07/21 02:26:19;;;;;;;;;25.33;23.33;;;;;22.25;60.88;101642.00;5020213;28;8974;-65
2022/07/21 02:28:46;;;;;;;;;21.00;21.00;;;;;22.27;61.11;101639.84;5045457;28;8995;-65
2022/07/21 02:31:13;;;;;;;;;21.67;21.67;;;;;22.25;60.83;101636.53;5039588;28;9057;-66
2022/07/21 02:33:39;;;;;;;;;24.33;23.33;;;;;22.18;61.16;101645.75;5044284;28;9234;-66
2022/07/21 02:36:06;;;;;;;;;23.00;21.33;;;;;22.17;61.22;101654.25;5039912;28;9050;-64
2022/07/21 02:38:33;;;;;;;;;22.00;20.33;;;;;22.15;61.30;101657.22;5037996;28;9014;-64
2022/07/21 02:40:59;;;;;;;;;22.67;22.33;;;;;22.10;61.41;101651.63;5033602;28;8978;-64
2022/07/21 02:43:26;;;;;;;;;24.33;22.67;;;;;22.09;61.38;101649.97;5014892;28;9097;-64
2022/07/21 02:45:52;;;;;;;;;27.00;26.00;;;;;22.08;61.71;101644.72;5015908;28;8934;-64
2022/07/21 02:48:19;;;;;;;;;27.67;26.67;;;;;22.08;61.69;101637.38;5013871;28;9151;-64
2022/07/21 02:50:46;;;;;;;;;26.00;25.00;;;;;22.07;61.78;101637.59;5034210;28;9138;-64
2022/07/21 02:53:19;;;;;;;;;25.00;23.33;;;;;22.06;61.58;101627.72;5045519;28;9072;-64
2022/07/21 02:55:46;;;;;;;;;18.67;18.67;;;;;22.06;61.83;101633.19;5053349;28;9057;-65
2022/07/21 02:58:15;;;;;;;;;28.25;27.50;;;;;22.04;61.83;101622.50;5045185;28;8911;-64
2022/07/21 03:00:49;;;;;;;;;24.00;24.00;;;;;22.08;61.69;101622.78;5034102;28;8930;-64
2022/07/21 03:03:16;;;;;;;;;27.67;24.33;;;;;22.05;61.66;101624.16;5035298;28;8908;-64
2022/07/21 03:05:42;;;;;;;;;27.67;24.33;;;;;22.04;61.87;101627.97;5022410;28;9004;-65
2022/07/21 03:08:10;;;;;;;;;25.50;22.00;;;;;22.04;61.86;101627.13;5033260;28;9118;-64
2022/07/21 03:10:38;;;;;;;;;22.00;20.67;;;;;22.03;61.83;101637.25;5048865;28;8832;-64
2022/07/21 03:13:04;;;;;;;;;18.67;18.33;;;;;22.02;61.87;101635.59;5036065;28;9062;-64
2022/07/21 03:15:32;;;;;;;;;27.00;23.67;;;;;21.99;62.02;101633.38;5012752;28;8908;-63
2022/07/21 03:17:59;;;;;;;;;24.00;21.67;;;;;22.00;62.17;101634.19;5034058;28;9137;-65
2022/07/21 03:20:27;;;;;;;;;21.25;18.75;;;;;22.03;61.91;101639.19;5030555;28;8982;-64
2022/07/21 03:22:54;;;;;;;;;21.00;19.25;;;;;22.02;62.09;101629.31;5047118;28;8938;-64
2022/07/21 03:25:21;;;;;;;;;25.67;23.00;;;;;22.01;61.93;101631.22;5040585;28;8827;-64
2022/07/21 03:27:48;;;;;;;;;22.75;20.25;;;;;21.96;62.25;101636.63;5032126;28;8942;-64
2022/07/21 03:30:16;;;;;;;;;24.00;22.00;;;;;21.96;62.06;101633.88;5033490;28;8818;-64
2022/07/21 03:32:43;;;;;;;;;21.00;20.67;;;;;21.97;62.19;101638.28;5029489;28;8934;-65
2022/07/21 03:35:11;;;;;;;;;15.75;14.00;;;;;22.00;62.32;101636.94;5033353;28;9011;-64
2022/07/21 03:37:50;;;;;;;;;16.25;14.25;;;;;22.00;62.22;101635.06;5027883;28;8837;-64
2022/07/21 03:40:22;;;;;;;;;22.00;17.33;;;;;22.00;62.28;101623.22;5053160;28;8808;-64
2022/07/21 03:42:54;;;;;;;;;20.00;20.00;;;;;21.97;62.22;101622.66;5032030;28;8994;-65
2022/07/21 03:45:21;;;;;;;;;19.00;17.50;;;;;21.98;62.25;101623.50;5037949;28;9042;-63
2022/07/21 03:47:47;;;;;;;;;23.00;22.00;;;;;21.94;62.39;101620.41;5021739;28;8829;-65
2022/07/21 03:50:17;;;;;;;;;26.67;24.00;;;;;21.93;62.39;101632.47;5033979;28;8991;-64
2022/07/21 03:52:46;;;;;;;;;21.75;21.25;;;;;21.92;62.57;101628.06;5031188;28;9029;-64
2022/07/21 03:55:20;;;;;;;;;20.00;19.00;;;;;21.94;62.49;101616.84;5014906;28;8850;-63
2022/07/21 03:57:52;;;;;;;;;16.50;16.50;;;;;21.94;62.69;101620.41;5024051;28;8976;-65
2022/07/21 04:00:40;;;;;;;;;19.00;19.00;;;;;21.96;62.52;101622.91;5014948;28;8880;-63
2022/07/21 04:03:07;;;;;;;;;22.00;19.67;;;;;21.95;62.64;101610.28;5033776;28;8815;-64
2022/07/21 04:05:34;;;;;;;;;23.67;21.00;;;;;21.93;62.73;101617.94;5045430;28;8980;-64
2022/07/21 04:08:02;;;;;;;;;24.00;21.00;;;;;21.92;62.72;101622.59;5028744;28;9140;-64
2022/07/21 04:10:32;;;;;;;;;25.50;22.25;;;;;21.91;62.80;101623.66;5045134;28;8966;-64
2022/07/21 04:13:00;;;;;;;;;31.33;26.00;;;;;21.89;62.85;101614.88;5033999;28;8817;-65
2022/07/21 04:15:27;;;;;;;;;20.50;19.00;;;;;21.88;63.06;101621.44;5029922;28;9067;-64
2022/07/21 04:17:54;;;;;;;;;25.75;25.00;;;;;21.87;63.11;101627.97;5017673;28;9003;-64
2022/07/21 04:20:21;;;;;;;;;19.25;18.75;;;;;21.88;62.90;101637.06;5022608;28;8817;-64
2022/07/21 04:22:49;;;;;;;;;20.25;18.00;;;;;21.87;63.11;101641.69;5019619;28;8863;-63
2022/07/21 04:25:18;;;;;;;;;25.33;22.67;;;;;21.86;62.98;101640.03;5030799;28;8873;-64
2022/07/21 04:27:46;;;;;;;;;26.33;24.00;;;;;21.88;63.13;101650.75;5033312;28;8911;-64
2022/07/21 04:30:24;;;;;;;;;28.00;27.00;;;;;21.86;63.09;101647.41;5033479;28;8915;-65
2022/07/21 04:32:51;;;;;;;;;20.33;19.00;;;;;21.81;63.48;101648.19;5037344;28;9189;-64
2022/07/21 04:35:18;;;;;;;;;21.67;20.33;;;;;21.82;63.44;101649.81;5031386;28;8921;-65
2022/07/21 04:37:45;;;;;;;;;27.67;26.00;;;;;21.83;63.47;101650.66;5047125;22;9067;-65
2022/07/21 04:40:13;;;;;;;;;26.33;24.00;;;;;21.78;63.61;101643.19;5071381;28;9043;-65
2022/07/21 04:42:40;;;;;;;;;20.67;20.67;;;;;21.77;63.69;101646.19;5054689;28;8991;-65
2022/07/21 04:45:08;;;;;;;;;20.33;20.33;;;;;21.77;63.70;101648.94;5070743;28;9003;-64
2022/07/21 04:47:43;;;;;;;;;28.33;24.33;;;;;21.73;63.68;101638.47;5067798;28;8926;-65
2022/07/21 04:50:10;;;;;;;;;27.00;23.00;;;;;21.74;64.03;101636.53;5051082;28;9203;-65
2022/07/21 04:52:36;;;;;;;;;29.33;22.33;;;;;21.70;63.94;101638.13;5051221;28;9045;-65
2022/07/21 04:55:03;;;;;;;;;29.67;28.00;;;;;21.69;64.02;101648.25;5066388;28;8937;-65
2022/07/21 04:57:30;;;;;;;;;32.33;30.67;;;;;21.65;64.07;101636.13;5049771;28;9072;-65
2022/07/21 04:59:56;;;;;;;;;28.75;25.25;;;;;21.62;64.22;101633.88;5051275;28;9111;-64
2022/07/21 05:02:23;;;;;;;;;20.67;19.00;;;;;21.62;64.40;101633.06;5048749;28;8839;-65
2022/07/21 05:04:49;;;;;;;;;28.00;24.33;;;;;21.63;64.52;101629.22;5047897;28;8910;-65
2022/07/21 05:07:17;;;;;;;;;22.33;19.00;;;;;21.67;64.40;101636.72;5045678;28;8995;-65
2022/07/21 05:09:43;;;;;;;;;17.50;16.50;;;;;21.65;64.49;101633.41;5050018;28;8902;-65
2022/07/21 05:12:11;;;;;;;;;21.67;20.67;;;;;21.64;64.47;101636.38;5050493;28;8867;-66
2022/07/21 05:14:37;;;;;;;;;24.50;19.50;;;;;21.64;64.57;101623.53;5050950;28;8976;-65
2022/07/21 05:17:04;;;;;;;;;29.67;26.33;;;;;21.64;64.36;101623.53;5060912;28;9528;-65
2022/07/21 05:19:30;;;;;;;;;20.00;18.75;;;;;21.64;64.63;101622.69;5031961;28;9091;-65
2022/07/21 05:21:56;;;;;;;;;22.67;22.67;;;;;21.63;64.63;101635.56;5046238;28;8827;-65
2022/07/21 05:24:23;;;;;;;;;24.00;23.33;;;;;21.59;64.73;101620.72;5036841;28;9068;-66
2022/07/21 05:26:49;;;;;;;;;27.00;22.67;;;;;21.56;64.70;101628.59;5037809;28;9064;-65
2022/07/21 05:29:16;;;;;;;;;23.25;20.75;;;;;21.59;64.87;101619.84;5042095;28;9174;-65
2022/07/21 05:31:42;;;;;;;;;24.33;24.33;;;;;21.60;65.07;101619.63;5048936;28;8823;-65
2022/07/21 05:34:09;;;;;;;;;26.00;22.00;;;;;21.64;64.78;101609.00;5038057;28;9219;-65
2022/07/21 05:36:35;;;;;;;;;21.75;19.25;;;;;21.65;64.78;101614.22;5030114;28;8909;-66
2022/07/21 05:39:03;;;;;;;;;24.75;24.25;;;;;21.64;64.77;101614.47;5030265;28;8837;-65
2022/07/21 05:41:30;;;;;;;;;21.75;19.50;;;;;21.62;65.05;101605.66;5030723;28;8834;-65
2022/07/21 05:43:56;;;;;;;;;23.00;22.00;;;;;21.64;64.84;101612.56;5030273;28;8896;-65
2022/07/21 05:46:23;;;;;;;;;22.00;20.00;;;;;21.61;65.00;101607.56;5030452;28;8972;-65
2022/07/21 05:48:49;;;;;;;;;18.33;18.33;;;;;21.58;64.83;101608.06;5048877;28;9615;-65
2022/07/21 05:51:16;;;;;;;;;16.75;15.75;;;;;21.59;65.26;101607.00;5050470;28;8920;-64
2022/07/21 05:53:44;;;;;;;;;25.67;18.33;;;;;21.58;65.02;101608.06;5049150;28;8974;-65
2022/07/21 05:56:11;;;;;;;;;26.67;25.67;;;;;21.55;65.37;101611.28;5049455;28;8947;-65
2022/07/21 05:58:38;;;;;;;;;28.00;27.00;;;;;21.52;65.42;101606.34;5049573;28;9068;-64
2022/07/21 06:01:07;;;;;;;;;22.75;21.75;;;;;21.55;65.51;101604.97;5049971;28;9082;-63
2022/07/21 06:03:38;;;;;;;;;20.75;18.50;;;;;21.62;65.00;101605.66;5050523;28;8815;-65
2022/07/21 06:06:05;;;;;;;;;28.33;27.00;;;;;21.55;65.17;101603.06;5050228;28;8846;-65
2022/07/21 06:08:31;;;;;;;;;24.00;22.00;;;;;21.56;65.58;101607.50;5048602;28;9092;-65
2022/07/21 06:10:58;;;;;;;;;25.33;24.33;;;;;21.56;65.65;101603.94;5049789;28;8931;-66
2022/07/21 06:13:24;;;;;;;;;31.00;25.00;;;;;21.56;65.51;101606.66;5049799;28;9033;-65
2022/07/21 06:15:51;;;;;;;;;31.33;30.33;;;;;21.57;65.55;101609.16;5050161;28;9055;-64
2022/07/21 06:18:18;;;;;;;;;24.33;19.67;;;;;21.56;65.80;101604.75;5049757;28;8921;-66
2022/07/21 06:20:44;;;;;;;;;32.33;31.67;;;;;21.54;65.64;101600.59;5050262;28;9111;-65
2022/07/21 06:23:10;;;;;;;;;29.33;28.00;;;;;21.52;65.72;101602.75;5050707;28;9359;-64
2022/07/21 06:25:37;;;;;;;;;33.00;30.67;;;;;21.54;65.82;101606.06;5050031;28;9150;-64
2022/07/21 06:28:03;;;;;;;;;26.67;26.33;;;;;21.58;65.67;101607.22;5049760;28;9232;-64
2022/07/21 06:30:30;;;;;;;;;20.25;19.75;;;;;21.60;65.78;101616.06;5050306;28;8918;-65
2022/07/21 06:32:57;;;;;;;;;33.33;27.00;;;;;21.61;65.53;101607.56;5050083;28;8827;-65
2022/07/21 06:35:23;;;;;;;;;29.33;27.67;;;;;21.58;65.53;101608.06;5050001;28;8885;-64
2022/07/21 06:37:49;;;;;;;;;34.67;31.67;;;;;21.57;65.68;101608.31;5049319;28;9006;-65
2022/07/21 06:40:16;;;;;;;;;31.67;30.00;;;;;21.59;65.93;101606.16;5049251;28;9327;-65
2022/07/21 06:42:42;;;;;;;;;30.50;26.25;;;;;21.60;65.75;101607.84;5049674;28;9162;-66
2022/07/21 06:45:29;;;;;;;;;35.00;29.00;;;;;21.63;65.83;101604.56;5048955;28;8859;-65
2022/07/21 06:48:13;;;;;;;;;33.33;27.67;;;;;21.64;65.69;101611.72;5049524;28;8926;-65
2022/07/21 06:50:40;;;;;;;;;32.33;32.33;;;;;21.61;65.70;101609.47;5048273;28;9092;-65
2022/07/21 06:53:07;;;;;;;;;29.00;23.33;;;;;21.62;66.11;101601.00;5049955;28;9888;-65
2022/07/21 06:55:34;;;;;;;;;31.00;28.33;;;;;21.63;65.56;101604.56;5049558;28;9737;-64
2022/07/21 06:58:15;;;;;;;;;32.33;27.33;;;;;21.62;65.91;101603.75;5049225;28;9167;-65
2022/07/21 07:00:44;;;;;;;;;30.00;27.67;;;;;21.55;66.20;101602.25;5049820;28;8997;-64
2022/07/21 07:03:11;;;;;;;;;33.67;31.33;;;;;21.52;66.37;101611.81;5049743;28;9831;-65
2022/07/21 07:05:37;;;;;;;;;37.00;33.67;;;;;21.46;66.59;101610.06;5049113;28;9290;-65
2022/07/21 07:08:04;;;;;;;;;28.00;26.67;;;;;21.45;66.62;101611.13;5051710;28;9318;-65
2022/07/21 07:10:37;;;;;;;;;26.00;24.33;;;;;21.42;66.61;101606.97;5051821;28;9035;-66
2022/07/21 07:13:03;;;;;;;;;33.00;24.00;;;;;21.47;66.33;101618.03;5053262;28;9357;-64
2022/07/21 07:15:50;;;;;;;;;29.33;28.00;;;;;21.44;66.48;101607.56;5053190;28;9688;-65
2022/07/21 07:18:16;;;;;;;;;27.50;24.25;;;;;21.42;66.59;101620.66;5067141;28;9015;-65
2022/07/21 07:20:43;;;;;;;;;29.33;26.67;;;;;21.41;66.89;101616.28;5053274;28;8820;-63
2022/07/21 07:23:09;;;;;;;;;27.67;26.67;;;;;21.42;67.15;101617.94;5068498;28;9100;-63
2022/07/21 07:25:37;;;;;;;;;35.67;29.67;;;;;21.42;67.14;101617.09;5067730;28;9186;-65
2022/07/21 07:28:05;;;;;;;;;24.67;23.00;;;;;21.41;67.60;101613.53;5052767;28;9127;-64
2022/07/21 07:30:31;;;;;;;;;29.00;26.67;;;;;21.41;67.61;101613.53;5035334;28;8976;-66
2022/07/21 07:32:58;;;;;;;;;31.33;27.33;;;;;21.39;67.90;101612.09;5052843;28;9030;-64
2022/07/21 07:35:24;;;;;;;;;30.00;30.00;;;;;21.38;68.36;101610.47;5068387;28;9627;-65
2022/07/21 07:37:50;;;;;;;;;31.67;25.67;;;;;21.38;68.43;101616.75;5052400;28;9158;-63
2022/07/21 07:40:21;;;;;;;;;30.33;27.00;;;;;21.35;68.64;101622.75;5051310;28;9055;-63
2022/07/21 07:42:48;;;;;;;;;26.33;26.33;;;;;21.33;68.85;101622.16;5052564;28;9883;-64
2022/07/21 07:45:15;;;;;;;;;30.33;27.67;;;;;21.36;69.30;101618.09;5052855;28;9131;-63
2022/07/21 07:47:43;;;;;;;;;26.00;23.00;;;;;21.38;69.29;101627.72;5052659;28;9060;-64
2022/07/21 07:50:12;;;;;;;;;26.00;21.67;;;;;21.37;69.40;101630.72;5051387;28;9063;-63
2022/07/21 07:52:40;;;;;;;;;24.33;21.00;;;;;21.29;69.56;101625.63;5052928;28;9078;-64
2022/07/21 07:55:10;;;;;;;;;23.00;22.33;;;;;21.21;70.22;101644.09;5052526;28;9741;-64
2022/07/21 07:57:42;;;;;;;;;27.33;24.33;;;;;21.16;70.43;101638.53;5052132;28;8991;-64
2022/07/21 08:00:12;;;;;;;;;20.75;20.25;;;;;21.13;70.85;101639.00;5052405;28;9063;-64
2022/07/21 08:02:58;;;;;;;;;26.00;21.25;;;;;21.11;71.13;101648.56;5052402;28;8937;-63
2022/07/21 08:05:25;;;;;;;;;19.67;18.67;;;;;21.13;71.10;101644.50;5052299;28;8827;-62
2022/07/21 08:07:51;;;;;;;;;20.50;19.00;;;;;21.15;71.22;101649.75;5051572;28;8942;-63
2022/07/21 08:10:18;;;;;;;;;24.75;23.00;;;;;21.13;71.23;101649.13;5052273;28;9568;-63
2022/07/21 08:13:05;;;;;;;;;19.75;17.25;;;;;21.08;71.29;101651.78;5052318;28;8881;-63
2022/07/21 08:15:33;;;;;;;;;17.25;17.25;;;;;21.05;71.57;101655.84;5052340;28;8900;-63
2022/07/21 08:18:00;;;;;;;;;23.00;20.33;;;;;21.06;71.80;101651.19;5051692;28;8859;-63
2022/07/21 08:20:26;;;;;;;;;18.75;18.50;;;;;21.05;71.68;101655.84;5051837;28;8894;-62
2022/07/21 08:22:53;;;;;;;;;18.50;17.25;;;;;21.06;71.71;101662.13;5052447;28;8838;-63
2022/07/21 08:25:19;;;;;;;;;26.67;24.00;;;;;21.03;71.89;101662.66;5052190;28;8851;-61
2022/07/21 08:27:46;;;;;;;;;17.25;16.00;;;;;20.96;72.06;101668.25;5051375;28;9119;-61
2022/07/21 08:30:13;;;;;;;;;20.25;18.50;;;;;20.94;72.08;101668.50;5052199;28;8830;-62
2022/07/21 08:32:40;;;;;;;;;14.00;14.00;;;;;20.92;72.03;101675.28;5051898;28;8847;-63
2022/07/21 08:35:08;;;;;;;;;16.00;15.50;;;;;20.89;71.74;101667.56;5051756;28;8808;-63
2022/07/21 08:37:39;;;;;;;;;16.25;16.25;;;;;20.87;71.66;101672.47;5051275;28;8838;-64
2022/07/21 08:40:10;;;;;;;;;15.50;14.50;;;;;20.82;71.79;101673.16;5051633;28;8820;-63
2022/07/21 08:42:37;;;;;;;;;11.50;11.50;;;;;20.79;71.79;101673.66;5051446;28;8866;-63
2022/07/21 08:45:05;;;;;;;;;15.75;15.75;;;;;20.74;71.68;101677.13;5051618;28;8839;-64
2022/07/21 08:47:31;;;;;;;;;13.00;13.00;;;;;20.73;71.74;101678.19;5051104;28;8836;-63
2022/07/21 08:49:59;;;;;;;;;14.00;14.00;;;;;20.72;71.80;101678.44;5051442;28;8885;-63
2022/07/21 08:52:25;;;;;;;;;14.25;13.50;;;;;20.71;71.80;101677.59;5051815;28;9541;-63
2022/07/21 08:54:52;;;;;;;;;11.75;11.75;;;;;20.71;71.98;101672.13;5051750;28;8835;-63
2022/07/21 08:57:18;;;;;;;;;10.50;9.50;;;;;20.71;72.04;101677.59;5051106;28;9639;-62
2022/07/21 08:59:45;;;;;;;;;8.50;7.75;;;;;20.69;71.89;101673.44;5051287;28;8843;-63
2022/07/21 09:02:35;;;;;;;;;9.50;9.00;;;;;20.66;71.49;101674.78;5051113;28;8873;-63
2022/07/21 09:05:04;;;;;;;;;8.00;8.00;;;;;20.54;71.43;101679.44;5051320;28;8953;-63
2022/07/21 09:07:46;;;;;;;;;9.75;8.00;;;;;20.44;71.94;101674.53;5051017;28;8843;-63
2022/07/21 09:10:13;;;;;;;;;7.25;7.25;;;;;20.44;72.33;101680.00;5051400;28;8912;-63
2022/07/21 09:12:54;;;;;;;;;8.25;8.25;;;;;20.47;72.01;101684.16;5051674;28;8872;-63
2022/07/21 09:15:22;;;;;;;;;7.50;7.00;;;;;20.43;72.21;101683.81;5051502;28;8839;-63
2022/07/21 09:18:11;;;;;;;;;7.00;6.75;;;;;20.39;72.05;101682.63;5050575;28;8835;-63
2022/07/21 09:20:47;;;;;;;;;5.25;5.25;;;;;20.40;72.01;101677.97;5051014;28;8958;-63
2022/07/21 09:23:16;;;;;;;;;6.25;6.00;;;;;20.39;71.84;101679.88;5051083;28;8908;-61
2022/07/21 09:25:51;;;;;;;;;6.50;6.50;;;;;20.42;71.97;101686.78;5050918;28;8820;-63
2022/07/21 09:28:25;;;;;;;;;7.50;7.50;;;;;20.45;71.99;101689.84;5050656;28;8950;-64
2022/07/21 09:30:56;;;;;;;;;7.75;7.75;;;;;20.47;71.83;101690.47;5050728;28;8827;-63
2022/07/21 09:33:32;;;;;;;;;4.75;4.75;;;;;20.47;71.87;101689.63;5050795;28;8811;-63
2022/07/21 09:36:13;;;;;;;;;13.50;10.75;;;;;20.42;71.63;101693.09;5046147;28;8956;-64
2022/07/21 09:38:44;;;;;;;;;7.25;7.25;;;;;20.32;71.51;101692.00;5030344;28;8854;-63
2022/07/21 09:41:16;;;;;;;;;6.75;6.75;;;;;20.25;71.69;101698.44;5030983;28;8830;-63
2022/07/21 09:43:42;;;;;;;;;9.00;8.50;;;;;20.22;71.68;101698.91;5030722;28;8825;-62
2022/07/21 09:46:11;;;;;;;;;8.50;8.00;;;;;20.23;71.92;101702.47;5030779;28;8907;-62
2022/07/21 09:48:40;;;;;;;;;8.50;8.50;;;;;20.24;71.97;101694.03;5045069;28;8862;-64
2022/07/21 09:51:27;;;;;;;;;12.75;12.00;;;;;20.23;71.78;101702.47;5050413;28;8828;-63
2022/07/21 09:54:07;;;;;;;;;9.50;9.25;;;;;20.23;71.83;101707.94;5065836;28;8880;-64
2022/07/21 09:56:39;;;;;;;;;10.50;9.00;;;;;20.20;71.80;101701.03;5050467;28;8827;-64
2022/07/21 09:59:07;;;;;;;;;10.75;9.25;;;;;20.19;71.84;101706.75;5050372;28;8843;-64
2022/07/21 10:01:36;;;;;;;;;11.75;10.75;;;;;20.21;71.86;101710.06;5050216;28;8847;-65
2022/07/21 10:04:03;;;;;;;;;12.75;11.50;;;;;20.16;71.85;101705.31;5050507;28;8827;-64
2022/07/21 10:06:32;;;;;;;;;12.75;12.50;;;;;20.15;71.88;101711.88;5050277;28;8816;-64
2022/07/21 10:09:01;;;;;;;;;13.25;12.00;;;;;20.16;71.87;101718.97;5050275;28;8836;-64
2022/07/21 10:11:28;;;;;;;;;7.50;7.50;;;;;20.19;72.03;101709.50;5050519;28;8945;-64
2022/07/21 10:13:56;;;;;;;;;11.25;11.25;;;;;20.19;71.82;101710.31;5051450;28;8861;-63
2022/07/21 10:16:23;;;;;;;;;10.75;9.75;;;;;20.19;72.02;101721.25;5051995;28;8836;-63
2022/07/21 10:19:10;;;;;;;;;12.75;11.75;;;;;20.18;71.89;101716.88;5050718;28;8920;-64
2022/07/21 10:21:52;;;;;;;;;11.00;10.75;;;;;20.18;72.14;101729.72;5050280;28;8819;-65
2022/07/21 10:24:19;;;;;;;;;10.50;8.75;;;;;20.18;71.97;101727.78;5050208;28;8929;-64
2022/07/21 10:27:06;;;;;;;;;11.75;11.00;;;;;20.15;72.13;101730.16;5049840;28;8827;-65
2022/07/21 10:29:48;;;;;;;;;12.25;10.75;;;;;20.09;72.00;101729.19;5049533;28;9604;-65
2022/07/21 10:32:16;;;;;;;;;12.25;9.25;;;;;20.05;72.29;101727.16;5050006;28;8815;-65
2022/07/21 10:34:43;;;;;;;;;10.25;9.00;;;;;20.04;72.29;101736.44;5050000;28;8950;-65
2022/07/21 10:37:11;;;;;;;;;11.25;9.00;;;;;20.04;72.57;101733.72;5049715;28;8827;-65
2022/07/21 10:39:38;;;;;;;;;10.00;9.25;;;;;20.06;72.57;101735.16;5064370;22;8884;-66
2022/07/21 10:42:16;;;;;;;;;10.00;10.00;;;;;20.07;72.33;101736.81;5051097;28;8832;-66
2022/07/21 10:44:45;;;;;;;;;7.00;7.00;;;;;20.07;72.27;101735.97;5054089;28;8927;-66
2022/07/21 10:47:13;;;;;;;;;9.50;7.25;;;;;20.06;72.23;101729.69;5053739;28;8816;-66
2022/07/21 10:49:44;;;;;;;;;7.00;7.00;;;;;20.05;72.35;101733.47;5022631;28;8831;-67
2022/07/21 10:52:35;;;;;;;;;5.75;5.75;;;;;20.08;72.32;101737.63;5034075;28;8933;-66
2022/07/21 10:55:10;;;;;;;;;6.75;6.75;;;;;20.08;72.46;101738.47;5033918;28;8933;-66
2022/07/21 10:57:41;;;;;;;;;5.25;5.25;;;;;20.14;72.55;101740.28;5016037;28;8838;-66
2022/07/21 11:00:24;;;;;;;;;8.25;8.25;;;;;20.20;72.46;101738.47;5033514;28;8846;-66
2022/07/21 11:02:57;;;;;;;;;4.75;4.00;;;;;20.17;72.55;101739.78;5033764;28;8822;-66
2022/07/21 11:05:26;;;;;;;;;7.00;7.00;;;;;20.16;72.37;101738.13;5032557;28;8807;-67
2022/07/21 11:08:12;;;;;;;;;4.50;4.25;;;;;20.14;72.16;101737.53;5033179;28;8892;-66
2022/07/21 11:10:45;;;;;;;;;6.25;6.25;;;;;20.15;72.32;101741.94;5033742;28;8908;-66
2022/07/21 11:13:12;;;;;;;;;6.50;6.50;;;;;20.17;72.42;101744.41;5033716;28;8880;-67
2022/07/21 11:15:46;;;;;;;;;4.00;4.00;;;;;20.17;72.49;101741.69;5033519;28;8896;-66
2022/07/21 11:18:22;;;;;;;;;6.75;4.50;;;;;20.16;72.26;101745.50;5033065;28;8888;-67
2022/07/21 11:21:09;;;;;;;;;5.75;4.25;;;;;20.14;72.23;101743.00;5032331;28;8842;-66
2022/07/21 11:23:44;;;;;;;;;3.25;3.25;;;;;20.16;72.46;101743.59;5018306;28;9680;-68
2022/07/21 11:26:12;;;;;;;;;6.50;6.00;;;;;20.20;72.46;101744.78;5033357;28;8883;-66
2022/07/21 11:28:39;;;;;;;;;5.75;5.75;;;;;20.23;72.69;101741.59;5032819;28;9643;-67
2022/07/21 11:31:07;;;;;;;;;8.75;7.00;;;;;20.27;72.64;101741.13;5033318;28;8811;-67